createdAt,value
2018-10-19T00:02:16.975Z,47.30
2018-10-19T00:04:46.987Z,51.10
2018-10-19T00:07:16.994Z,46.77
2018-10-19T00:09:47.108Z,47.13
2018-10-19T00:12:17.153Z,46.47
2018-10-19T00:14:47.069Z,51.70
2018-10-19T00:17:17.145Z,50.37
2018-10-19T00:19:47.061Z,50.63
2018-10-19T00:22:17.009Z,47.93
2018-10-19T00:24:46.992Z,48.47
2018-10-19T00:27:17.112Z,47.83
2018-10-19T00:29:46.991Z,50.33
2018-10-19T00:32:16.921Z,51.03
2018-10-19T00:34:46.908Z,53.30
2018-10-19T00:37:16.924Z,58.73
2018-10-19T00:39:47.185Z,50.43
2018-10-19T00:42:17.150Z,48.57
2018-10-19T00:44:47.087Z,49.43
2018-10-19T00:47:17.218Z,54.63
2018-10-19T00:49:47.044Z,50.77
2018-10-19T00:52:17.052Z,51.13
2018-10-19T00:54:47.182Z,54.60
2018-10-19T00:57:17.317Z,55.00
2018-10-19T00:59:47.173Z,54.10
2018-10-19T01:02:17.141Z,55.30
2018-10-19T01:04:47.113Z,55.80
2018-10-19T01:07:17.128Z,57.37
2018-10-19T01:09:47.133Z,53.80
2018-10-19T01:12:17.088Z,56.53
2018-10-19T01:14:47.108Z,57.00
2018-10-19T01:17:17.263Z,63.97
2018-10-19T01:19:47.175Z,66.80
2018-10-19T01:22:17.429Z,57.23
2018-10-19T01:24:47.932Z,59.43
2018-10-19T01:27:17.870Z,59.13
2018-10-19T01:29:47.872Z,62.53
2018-10-19T01:32:17.977Z,66.30
2018-10-19T01:34:48.000Z,64.60
2018-10-19T01:37:17.989Z,65.50
2018-10-19T01:39:47.903Z,60.67
2018-10-19T01:42:18.200Z,62.17
2018-10-19T01:44:48.188Z,66.20
2018-10-19T01:47:18.242Z,67.03
2018-10-19T01:49:48.242Z,69.17
2018-10-19T01:52:18.158Z,70.80
2018-10-19T01:54:48.145Z,67.47
2018-10-19T01:57:18.432Z,70.17
2018-10-19T01:59:48.400Z,71.00
2018-10-19T02:02:18.435Z,76.57
2018-10-19T02:04:48.498Z,70.47
2018-10-19T02:07:18.479Z,68.17
2018-10-19T02:09:48.482Z,71.80
2018-10-19T02:12:18.496Z,72.67
2018-10-19T02:14:48.568Z,70.87
2018-10-19T02:17:18.856Z,73.80
2018-10-19T02:19:48.820Z,75.47
2018-10-19T02:22:18.731Z,77.53
2018-10-19T02:24:48.748Z,73.00
2018-10-19T02:27:18.668Z,78.57
2018-10-19T02:29:48.636Z,73.43
2018-10-19T02:32:18.596Z,76.30
2018-10-19T02:34:48.593Z,74.27
2018-10-19T02:37:18.505Z,78.63
2018-10-19T02:39:48.519Z,86.67
2018-10-19T02:42:18.426Z,81.07
2018-10-19T02:44:48.421Z,80.30
2018-10-19T02:47:18.423Z,83.67
2018-10-19T02:49:48.609Z,83.53
2018-10-19T02:52:18.555Z,81.50
2018-10-19T02:54:48.472Z,85.17
2018-10-19T02:57:18.484Z,84.67
2018-10-19T02:59:48.470Z,89.30
2018-10-19T03:02:18.415Z,84.40
2018-10-19T03:04:48.640Z,84.17
2018-10-19T03:07:18.570Z,90.27
2018-10-19T03:09:48.676Z,99.77
2018-10-19T03:12:19.189Z,88.10
2018-10-19T03:14:49.268Z,83.40
2018-10-19T03:17:19.355Z,88.23
2018-10-19T03:19:49.380Z,96.60
2018-10-19T03:22:19.430Z,94.77
2018-10-19T03:24:49.379Z,98.50
2018-10-19T03:27:19.399Z,99.07
2018-10-19T03:29:49.273Z,102.27
2018-10-19T03:32:19.193Z,101.13
2018-10-19T03:34:49.243Z,94.90
2018-10-19T03:37:19.206Z,97.97
2018-10-19T03:39:49.208Z,96.33
2018-10-19T03:42:19.251Z,94.30
2018-10-19T03:44:49.203Z,96.43
2018-10-19T03:47:19.312Z,90.30
2018-10-19T03:49:49.207Z,87.83
2018-10-19T03:52:19.120Z,92.30
2018-10-19T03:54:49.082Z,98.90
2018-10-19T03:57:19.010Z,93.27
2018-10-19T03:59:49.578Z,98.53
2018-10-19T04:02:19.520Z,97.03
2018-10-19T04:04:49.525Z,93.13
2018-10-19T04:07:19.534Z,93.17
2018-10-19T04:09:49.555Z,99.10
2018-10-19T04:12:19.607Z,95.00
2018-10-19T04:14:49.560Z,110.63
2018-10-19T04:17:20.099Z,125.70
2018-10-19T04:19:50.071Z,117.33
2018-10-19T04:22:20.036Z,117.67
2018-10-19T04:24:50.126Z,127.10
2018-10-19T04:27:20.131Z,118.97
2018-10-19T04:29:50.181Z,127.53
2018-10-19T04:32:20.120Z,129.33
2018-10-19T04:34:50.171Z,128.63
2018-10-19T04:37:20.174Z,110.67
2018-10-19T04:39:50.084Z,157.50
2018-10-19T04:42:20.070Z,120.40
2018-10-19T04:44:50.090Z,124.60
2018-10-19T04:47:20.073Z,126.80
2018-10-19T04:49:50.164Z,118.17
2018-10-19T04:52:20.334Z,117.93
2018-10-19T04:54:50.371Z,122.60
2018-10-19T04:57:20.476Z,121.37
2018-10-19T04:59:50.441Z,129.57
2018-10-19T05:02:20.324Z,122.43
2018-10-19T05:04:50.441Z,118.83
2018-10-19T05:07:21.035Z,117.37
2018-10-19T05:09:51.024Z,120.50
2018-10-19T05:12:21.062Z,119.43
2018-10-19T05:14:50.996Z,133.70
2018-10-19T05:17:21.031Z,123.20
2018-10-19T05:19:50.988Z,130.73
2018-10-19T05:22:20.980Z,128.87
2018-10-19T05:24:51.112Z,129.23
2018-10-19T05:27:20.916Z,129.67
2018-10-19T05:29:50.905Z,150.30
2018-10-19T05:32:20.792Z,133.83
2018-10-19T05:34:50.784Z,138.80
2018-10-19T05:37:20.793Z,141.30
2018-10-19T05:39:50.755Z,141.67
2018-10-19T05:42:20.683Z,140.87
2018-10-19T05:44:50.648Z,149.00
2018-10-19T05:47:21.259Z,157.30
2018-10-19T05:49:51.231Z,138.00
2018-10-19T05:52:21.345Z,133.00
2018-10-19T05:54:51.369Z,146.17
2018-10-19T05:57:21.542Z,144.90
2018-10-19T05:59:51.578Z,144.70
2018-10-19T06:02:21.634Z,146.50
2018-10-19T06:04:51.508Z,140.93
2018-10-19T06:07:21.547Z,139.87
2018-10-19T06:09:51.636Z,142.93
2018-10-19T06:12:21.615Z,137.10
2018-10-19T06:14:51.685Z,138.87
2018-10-19T06:17:21.708Z,137.60
2018-10-19T06:19:52.055Z,136.67
2018-10-19T06:22:22.065Z,134.53
2018-10-19T06:24:52.112Z,141.57
2018-10-19T06:27:22.183Z,133.43
2018-10-19T06:29:52.186Z,135.57
2018-10-19T06:32:22.168Z,129.23
2018-10-19T06:34:52.549Z,123.10
2018-10-19T06:37:22.464Z,131.83
2018-10-19T06:39:52.513Z,128.30
2018-10-19T06:42:22.607Z,121.30
2018-10-19T06:44:52.600Z,120.97
2018-10-19T06:47:22.692Z,121.20
2018-10-19T06:49:52.543Z,118.77
2018-10-19T06:52:22.522Z,125.33
2018-10-19T06:54:52.939Z,119.27
2018-10-19T06:57:23.971Z,121.57
2018-10-19T06:59:53.856Z,107.27
2018-10-19T07:02:23.977Z,108.03
2018-10-19T07:04:54.041Z,119.17
2018-10-19T07:07:24.064Z,115.43
2018-10-19T07:09:54.126Z,102.70
2018-10-19T07:12:24.212Z,111.97
2018-10-19T07:14:54.207Z,110.87
2018-10-19T07:17:24.282Z,105.10
2018-10-19T07:19:54.359Z,105.57
2018-10-19T07:22:24.419Z,103.90
2018-10-19T07:24:54.440Z,104.73
2018-10-19T07:27:24.474Z,101.37
2018-10-19T07:29:54.365Z,101.07
2018-10-19T07:32:24.404Z,102.23
2018-10-19T07:34:54.460Z,103.53
2018-10-19T07:37:24.494Z,93.53
2018-10-19T07:39:54.471Z,95.10
2018-10-19T07:42:24.759Z,96.53
2018-10-19T07:44:54.694Z,90.47
2018-10-19T07:47:24.850Z,103.30
2018-10-19T07:49:55.147Z,106.37
2018-10-19T07:52:25.225Z,95.33
2018-10-19T07:54:55.352Z,97.43
2018-10-19T07:57:25.444Z,99.00
2018-10-19T07:59:55.514Z,100.67
2018-10-19T08:02:25.600Z,107.27
2018-10-19T08:04:55.548Z,96.40
2018-10-19T08:07:25.532Z,96.87
2018-10-19T08:09:55.579Z,101.03
2018-10-19T08:12:25.556Z,100.20
2018-10-19T08:14:55.968Z,97.10
2018-10-19T08:17:26.128Z,96.10
2018-10-19T08:19:56.111Z,98.30
2018-10-19T08:22:26.105Z,96.87
2018-10-19T08:24:56.200Z,91.07
2018-10-19T08:27:26.356Z,94.93
2018-10-19T08:29:56.286Z,98.10
2018-10-19T08:32:26.340Z,98.67
2018-10-19T08:34:56.293Z,95.30
2018-10-19T08:37:26.409Z,96.37
2018-10-19T08:39:56.357Z,95.50
2018-10-19T08:42:26.490Z,99.97
2018-10-19T08:44:56.561Z,94.37
2018-10-19T08:47:26.764Z,96.43
2018-10-19T08:49:56.797Z,94.47
2018-10-19T08:52:26.933Z,90.80
2018-10-19T08:54:56.963Z,91.03
2018-10-19T08:57:26.912Z,89.80
2018-10-19T08:59:56.880Z,94.57
2018-10-19T09:02:26.803Z,83.43
2018-10-19T09:04:56.888Z,87.67
2018-10-19T09:07:26.964Z,82.93
2018-10-19T09:09:57.108Z,85.90
2018-10-19T09:12:27.196Z,79.00
2018-10-19T09:14:59.364Z,78.67
2018-10-19T09:17:29.711Z,84.67
2018-10-19T09:19:59.676Z,83.63
2018-10-19T09:22:29.655Z,80.00
2018-10-19T09:24:59.679Z,80.30
2018-10-19T09:27:29.739Z,80.20
2018-10-19T09:29:59.749Z,85.97
2018-10-19T09:32:29.743Z,80.83
2018-10-19T09:34:59.694Z,79.40
2018-10-19T09:37:29.680Z,75.27
2018-10-19T09:39:59.771Z,79.40
2018-10-19T09:42:29.754Z,82.90
2018-10-19T09:44:59.685Z,73.93
2018-10-19T09:47:29.713Z,74.70
2018-10-19T09:49:59.772Z,97.07
2018-10-19T09:52:29.825Z,87.47
2018-10-19T09:54:59.844Z,80.80
2018-10-19T09:57:29.747Z,76.33
2018-10-19T09:59:59.740Z,82.00
2018-10-19T10:02:29.735Z,78.27
2018-10-19T10:04:59.742Z,75.97
2018-10-19T10:07:29.660Z,86.83
2018-10-19T10:09:59.878Z,83.23
2018-10-19T10:12:29.904Z,81.63
2018-10-19T10:14:59.979Z,78.17
2018-10-19T10:17:29.843Z,84.13
2018-10-19T10:19:59.899Z,85.37
2018-10-19T10:22:29.758Z,81.70
2018-10-19T10:24:59.872Z,79.83
2018-10-19T10:27:29.824Z,84.23
2018-10-19T10:29:59.806Z,78.27
2018-10-19T10:32:29.796Z,80.43
2018-10-19T10:34:59.828Z,75.10
2018-10-19T10:37:29.905Z,85.53
2018-10-19T10:40:00.005Z,80.60
2018-10-19T10:42:29.900Z,76.77
2018-10-19T10:44:59.977Z,77.63
2018-10-19T10:47:30.272Z,80.00
2018-10-19T10:50:00.558Z,74.63
2018-10-19T10:52:30.486Z,76.97
2018-10-19T10:55:00.721Z,77.87
2018-10-19T10:57:30.634Z,76.20
2018-10-19T11:00:00.725Z,74.50
2018-10-19T11:02:30.733Z,80.60
2018-10-19T11:05:00.843Z,81.23
2018-10-19T11:07:30.874Z,75.80
2018-10-19T11:10:01.416Z,79.07
2018-10-19T11:12:32.839Z,77.23
2018-10-19T11:15:02.998Z,72.90
2018-10-19T11:17:33.106Z,72.50
2018-10-19T11:20:03.162Z,78.00
2018-10-19T11:22:33.248Z,74.50
2018-10-19T11:25:03.354Z,79.03
2018-10-19T11:27:33.422Z,78.03
2018-10-19T11:30:03.778Z,76.13
2018-10-19T11:32:33.749Z,72.87
2018-10-19T11:35:03.770Z,73.40
2018-10-19T11:37:34.027Z,73.77
2018-10-19T11:40:37.488Z,71.60
2018-10-19T11:43:07.651Z,71.43
2018-10-19T11:45:38.681Z,77.20
2018-10-19T11:48:08.667Z,73.33
2018-10-19T11:50:38.670Z,67.63
2018-10-19T11:53:08.707Z,70.90
2018-10-19T11:55:38.677Z,75.00
2018-10-19T11:58:08.684Z,73.27
2018-10-19T12:00:38.606Z,66.93
2018-10-19T12:03:08.599Z,74.00
2018-10-19T12:05:39.244Z,71.27
2018-10-19T12:08:09.211Z,75.53
2018-10-19T12:10:39.158Z,68.07
2018-10-19T12:13:09.134Z,74.30
2018-10-19T12:15:39.093Z,68.60
2018-10-19T12:18:09.008Z,74.57
2018-10-19T12:20:39.305Z,73.13
2018-10-19T12:23:09.340Z,72.17
2018-10-19T12:25:39.952Z,64.00
2018-10-19T12:28:09.970Z,70.97
2018-10-19T12:30:39.968Z,66.07
2018-10-19T12:33:10.071Z,70.63
2018-10-19T12:35:40.037Z,65.53
2018-10-19T12:38:10.210Z,73.80
2018-10-19T12:40:40.197Z,71.07
2018-10-19T12:43:10.618Z,67.43
2018-10-19T12:46:51.442Z,66.13
2018-10-19T12:49:23.716Z,63.20
2018-10-19T12:51:53.955Z,65.70
2018-10-19T12:54:24.554Z,67.50
2018-10-19T12:56:54.600Z,71.43
2018-10-19T12:59:24.570Z,66.50
2018-10-19T13:01:54.518Z,62.80
2018-10-19T13:04:24.568Z,68.17
2018-10-19T13:06:54.636Z,67.37
2018-10-19T13:09:24.718Z,64.50
2018-10-19T13:11:54.880Z,68.13
2018-10-19T13:14:24.908Z,70.97
2018-10-19T13:16:54.841Z,66.17
2018-10-19T13:19:24.844Z,67.47
2018-10-19T13:21:55.200Z,70.70
2018-10-19T13:24:25.638Z,65.37
2018-10-19T13:26:55.661Z,67.33
2018-10-19T13:29:25.680Z,70.67
2018-10-19T13:31:55.867Z,67.20
2018-10-19T13:34:26.074Z,64.83
2018-10-19T13:36:56.025Z,73.13
2018-10-19T13:39:26.055Z,68.00
2018-10-19T13:41:56.051Z,71.30
2018-10-19T13:44:28.264Z,70.03
2018-10-19T13:46:59.372Z,69.53
2018-10-19T13:49:29.839Z,62.53
2018-10-19T13:52:00.319Z,61.90
2018-10-19T13:54:30.634Z,70.07
2018-10-19T13:57:01.364Z,68.40
2018-10-19T13:59:31.426Z,63.37
2018-10-19T14:02:01.402Z,64.50
2018-10-19T14:04:31.716Z,70.90
2018-10-19T14:07:01.706Z,65.37
2018-10-19T14:09:31.663Z,63.13
2018-10-19T14:12:03.859Z,70.30
2018-10-19T14:14:33.790Z,65.00
2018-10-19T14:17:03.840Z,68.20
2018-10-19T14:19:33.915Z,69.00
2018-10-19T14:22:04.307Z,67.03
2018-10-19T14:24:34.454Z,77.00
2018-10-19T14:27:04.495Z,69.53
2018-10-19T14:29:34.646Z,67.20
2018-10-19T14:32:05.017Z,64.40
2018-10-19T14:34:34.951Z,67.87
2018-10-19T14:37:05.301Z,64.53
2018-10-19T14:39:35.506Z,64.97
2018-10-19T14:42:05.733Z,62.23
2018-10-19T14:44:35.754Z,69.43
2018-10-19T14:47:07.017Z,61.77
2018-10-19T14:49:36.969Z,69.17
2018-10-19T14:52:06.977Z,67.30
2018-10-19T14:54:36.986Z,63.47
2018-10-19T14:57:07.002Z,74.10
2018-10-19T14:59:36.978Z,65.80
2018-10-19T15:02:07.073Z,63.27
2018-10-19T15:04:37.042Z,61.53
2018-10-19T15:07:07.081Z,68.43
2018-10-19T15:09:37.214Z,68.10
2018-10-19T15:12:07.685Z,58.30
2018-10-19T15:14:37.873Z,63.07
2018-10-19T15:17:08.028Z,65.80
2018-10-19T15:19:38.044Z,62.83
2018-10-19T15:22:08.047Z,63.33
2018-10-19T15:24:38.077Z,63.37
2018-10-19T15:27:08.273Z,67.77
2018-10-19T15:29:38.336Z,65.53
2018-10-19T15:32:08.416Z,63.00
2018-10-19T15:34:38.429Z,66.90
2018-10-19T15:37:08.782Z,65.60
2018-10-19T15:39:38.847Z,63.00
2018-10-19T15:42:09.180Z,62.27
2018-10-19T15:44:39.335Z,68.87
2018-10-19T15:47:09.406Z,62.80
2018-10-19T15:49:39.348Z,57.77
2018-10-19T15:52:09.448Z,68.63
2018-10-19T15:54:39.556Z,63.07
2018-10-19T15:57:09.625Z,66.43
2018-10-19T15:59:39.545Z,78.57
2018-10-19T16:02:09.614Z,61.03
2018-10-19T16:04:39.662Z,62.93
2018-10-19T16:07:09.835Z,67.07
2018-10-19T16:09:39.900Z,63.50
2018-10-19T16:12:09.970Z,66.23
2018-10-19T16:14:39.929Z,63.63
2018-10-19T16:17:10.454Z,64.03
2018-10-19T16:19:41.453Z,61.47
2018-10-19T16:22:11.515Z,68.53
2018-10-19T16:24:44.211Z,63.00
2018-10-19T16:27:14.916Z,67.80
2018-10-19T16:29:45.548Z,67.80
2018-10-19T16:32:15.696Z,67.00
2018-10-19T16:34:45.805Z,73.33
2018-10-19T16:37:20.752Z,65.90
2018-10-19T16:39:54.900Z,63.73
2018-10-19T16:42:36.566Z,66.03
2018-10-19T16:45:11.333Z,70.10
2018-10-19T16:47:45.930Z,73.13
2018-10-19T16:50:18.997Z,70.90
2018-10-19T16:52:53.832Z,68.20
2018-10-19T16:55:29.273Z,71.90
2018-10-19T16:58:02.560Z,75.33
2018-10-19T17:00:36.672Z,70.40
2018-10-19T17:03:11.127Z,71.90
2018-10-19T17:05:44.817Z,72.97
2018-10-19T17:08:23.598Z,88.80
2018-10-19T17:10:58.056Z,80.17
2018-10-19T17:13:31.236Z,75.07
2018-10-19T17:16:04.291Z,77.27
2018-10-19T17:18:37.614Z,74.13
2018-10-19T17:21:10.996Z,72.00
2018-10-19T17:23:44.159Z,83.83
2018-10-19T17:26:18.053Z,82.33
2018-10-19T17:28:51.103Z,126.73
2018-10-19T17:31:23.909Z,90.27
2018-10-19T17:33:56.567Z,165.90
2018-10-19T17:36:27.468Z,189.00
2018-10-19T17:39:00.894Z,144.43
2018-10-19T17:41:34.808Z,140.23
2018-10-19T17:44:06.429Z,107.57
2018-10-19T17:46:37.700Z,86.20
2018-10-19T17:49:10.091Z,91.60
2018-10-19T17:51:42.378Z,83.03
2018-10-19T17:54:14.330Z,91.63
2018-10-19T17:56:45.148Z,91.03
2018-10-19T17:59:15.478Z,97.03
2018-10-19T18:01:45.769Z,83.67
2018-10-19T18:04:19.758Z,83.40
2018-10-19T18:06:50.539Z,83.87
2018-10-19T18:09:21.675Z,77.97
2018-10-19T18:11:55.400Z,84.97
2018-10-19T18:14:25.484Z,85.90
2018-10-19T18:16:55.638Z,84.83
2018-10-19T18:19:25.940Z,80.87
2018-10-19T18:21:55.948Z,87.07
2018-10-19T18:24:26.133Z,101.97
2018-10-19T18:26:57.357Z,116.03
2018-10-19T18:29:27.487Z,104.80
2018-10-19T18:31:57.468Z,75.97
2018-10-19T18:34:27.717Z,82.00
2018-10-19T18:36:57.864Z,85.60
2018-10-19T18:39:27.986Z,83.80
2018-10-19T18:41:59.620Z,81.43
2018-10-19T18:44:30.604Z,84.47
2018-10-19T18:47:01.435Z,75.70
2018-10-19T18:49:32.050Z,80.70
2018-10-19T18:52:02.272Z,84.23
2018-10-19T18:54:32.711Z,80.90
2018-10-19T18:57:03.395Z,91.20
2018-10-19T18:59:35.719Z,80.37
2018-10-19T19:02:06.184Z,89.57
2018-10-19T19:04:36.322Z,79.00
2018-10-19T19:07:06.824Z,88.43
2018-10-19T19:09:36.832Z,82.97
2018-10-19T19:12:07.934Z,84.27
2018-10-19T19:14:38.616Z,74.20
2018-10-19T19:17:09.631Z,79.83
2018-10-19T19:19:39.801Z,83.23
2018-10-19T19:22:09.795Z,92.87
2018-10-19T19:24:45.020Z,82.70
2018-10-19T19:27:15.344Z,81.73
2018-10-19T19:29:45.330Z,85.07
2018-10-19T19:32:15.491Z,89.70
2018-10-19T19:34:45.343Z,87.50
2018-10-19T19:37:15.347Z,105.63
2018-10-19T19:39:45.344Z,93.87
2018-10-19T19:42:20.595Z,92.17
2018-10-19T19:44:50.670Z,93.50
2018-10-19T19:47:26.108Z,93.10
2018-10-19T19:50:00.506Z,90.83
2018-10-19T19:52:30.959Z,93.40
2018-10-19T19:55:01.262Z,98.60
2018-10-19T19:57:32.003Z,99.97
2018-10-19T20:00:02.448Z,98.80
2018-10-19T20:02:32.755Z,93.20
2018-10-19T20:05:03.112Z,88.83
2018-10-19T20:07:33.920Z,91.97
2018-10-19T20:10:04.612Z,99.73
2018-10-19T20:12:35.101Z,92.83
2018-10-19T20:15:06.862Z,99.20
2018-10-19T20:17:36.924Z,99.83
2018-10-19T20:20:08.776Z,103.40
2018-10-19T20:22:39.401Z,109.53
2018-10-19T20:25:10.636Z,106.03
2018-10-19T20:27:40.988Z,103.53
2018-10-19T20:30:12.824Z,105.10
2018-10-19T20:32:42.819Z,101.50
2018-10-19T20:35:13.289Z,104.97
2018-10-19T20:37:43.263Z,97.13
2018-10-19T20:40:13.283Z,101.10
2018-10-19T20:42:43.302Z,108.30
2018-10-19T20:45:13.251Z,113.87
2018-10-19T20:47:43.330Z,109.07
2018-10-19T20:50:13.398Z,112.43
2018-10-19T20:52:43.317Z,121.47
2018-10-19T20:55:13.246Z,109.37
2018-10-19T20:57:43.333Z,112.10
2018-10-19T21:00:13.528Z,99.47
2018-10-19T21:02:43.685Z,106.83
2018-10-19T21:05:13.723Z,109.77
2018-10-19T21:07:43.883Z,121.30
2018-10-19T21:10:14.572Z,123.53
2018-10-19T21:12:44.577Z,120.93
2018-10-19T21:15:14.865Z,117.90
2018-10-19T21:17:44.862Z,113.97
2018-10-19T21:20:14.880Z,118.90
2018-10-19T21:22:44.930Z,115.33
2018-10-19T21:25:14.880Z,118.73
2018-10-19T21:27:44.854Z,112.67
2018-10-19T21:30:14.925Z,109.73
2018-10-19T21:32:44.880Z,109.17
2018-10-19T21:35:14.943Z,114.43
2018-10-19T21:37:44.857Z,117.60
2018-10-19T21:40:14.830Z,123.17
2018-10-19T21:42:44.799Z,130.43
2018-10-19T21:45:14.782Z,120.47
2018-10-19T21:47:45.050Z,122.23
2018-10-19T21:50:15.243Z,126.30
2018-10-19T21:52:45.243Z,120.57
2018-10-19T21:55:15.356Z,117.80
2018-10-19T21:57:45.423Z,127.53
2018-10-19T22:00:15.385Z,134.17
2018-10-19T22:02:45.412Z,121.37
2018-10-19T22:05:15.821Z,129.17
2018-10-19T22:07:45.970Z,132.23
2018-10-19T22:10:15.984Z,132.83
2018-10-19T22:12:45.919Z,126.63
2018-10-19T22:15:15.912Z,138.93
2018-10-19T22:17:46.253Z,137.40
2018-10-19T22:20:16.219Z,153.93
2018-10-19T22:22:46.277Z,141.40
2018-10-19T22:25:16.257Z,141.27
2018-10-19T22:27:46.280Z,134.40
2018-10-19T22:30:16.336Z,143.23
2018-10-19T22:32:46.397Z,130.93
2018-10-19T22:35:16.638Z,127.30
2018-10-19T22:37:46.628Z,126.63
2018-10-19T22:40:16.642Z,110.97
2018-10-19T22:42:46.696Z,97.13
2018-10-19T22:45:16.780Z,102.63
2018-10-19T22:47:46.760Z,108.80
2018-10-19T22:50:16.694Z,121.33
2018-10-19T22:52:46.631Z,112.13
2018-10-19T22:55:16.783Z,125.83
2018-10-19T22:57:46.714Z,152.03
2018-10-19T23:00:17.090Z,181.12
2018-10-19T23:02:47.142Z,160.90
2018-10-19T23:05:17.222Z,151.40
2018-10-19T23:07:47.162Z,144.87
2018-10-19T23:10:17.108Z,141.87
2018-10-19T23:12:47.080Z,146.63
2018-10-19T23:15:17.088Z,148.43
2018-10-19T23:17:47.071Z,144.53
2018-10-19T23:20:17.235Z,139.47
2018-10-19T23:22:47.117Z,135.47
2018-10-19T23:25:17.258Z,136.83
2018-10-19T23:27:47.060Z,129.43
2018-10-19T23:30:17.043Z,131.77
2018-10-19T23:32:47.031Z,139.53
2018-10-19T23:35:17.085Z,146.50
2018-10-19T23:37:47.059Z,171.57
2018-10-19T23:40:16.966Z,191.17
2018-10-19T23:42:47.314Z,188.80
2018-10-19T23:45:17.330Z,188.27
2018-10-19T23:47:47.428Z,182.50
2018-10-19T23:50:17.418Z,174.63
2018-10-19T23:52:47.428Z,164.60
2018-10-19T23:55:17.417Z,170.80
2018-10-19T23:57:47.519Z,162.57
